Gainestown, AL

11:55 AM CDT on September 30, 2014 (GMT -0500)
Whiting Fld NAS | Change Station
CLOSE
Current Station
Airport
Location: Whiting Fld NAS,
Elevation: 200 ft
Nearby Weather Stations

Elev 200 ft 30.73 °N, 87.02 °W | Updated 59 minutes ago

Overcast
Overcast
76 °F
Feels Like 76 °F
N
5
Wind Variable Wind from North

Today
High -- | Low -- °F
--% Chance of Precip.
Yesterday
High -- | Low -- °F
Precip. -- in
6:43 AM 6:36 PM
Waxing Crescent, 38% visible
Pressure 29.88 in
Visibility 10.0 miles
Clouds Mostly Cloudy 2100 ft
Dew Point 67 °F
Humidity 74%
Rainfall 0.00 in
Snow Depth Not available.
UV 4 out of 12
Pollen 7.20 out of 12
Air Quality Not available.
Flu Activity Not available.
METAR KNSE 301556Z 01004KT 10SM BKN021 24/19 A2993 RMK AO2 SLP119 T02440194 $

More Conditions Fewer Conditions

Pressure 29.88 in
Visibility 10.0 miles
Clouds Mostly Cloudy 2100 ft
Dew Point 67 °F
Humidity 74%
Rainfall 0.00 in
Snow Depth Not available.
UV 4 out of 12
Pollen 7.20 out of 12
Air Quality Not available.
Flu Activity Not available.
METAR KNSE 301556Z 01004KT 10SM BKN021 24/19 A2993 RMK AO2 SLP119 T02440194 $

More Conditions Fewer Conditions

10-Day Weather Forecast

Almanac

Astronomy

Sep. 30, 2014 Rise Set
Actual Time 6:43 AM CDT 6:36 PM CDT
Civil Twilight 6:19 AM CDT 7:01 PM CDT
Nautical Twilight 5:51 AM CDT 7:29 PM CDT
Astronomical Twilight 5:23 AM CDT 7:57 PM CDT
Moon 12:34 PM CDT 11:23 PM CDT
Length of Visible Light 12h 41m
Length of Day
11h 53m
Tomorrow will be 1m 53s shorter.
Waxing Crescent, 38% of the Moon is Illuminated
Today
Waxing Crescent
Oct 1
First Quarter
Oct 8
Full
Oct 15
Last Quarter
Oct 23
New

Today's Extremes

State Highs State Lows

Community

WunderPhotos

Upload Photos

1,757,682 photos uploaded!

Nearby

Snow Depth

Station Depth Elevation
No new snow has been reported.

Earthquake Activity

City Distance Mag. Time & Date
No recent earthquake activity has been reported nearby.
Minimum magnitude displayed is 2.5.

Coastal Water Temperatures

Place Temperature
No Stations Reporting

Nearby Weather Stations